West Lincoln

*Note: All times are displayed in the local standard time of the station location.
**Rain - Equipment is designed to accurately record liquid precipitation; under conditions when precipitation is not in liquid form, the data displayed may not properly reflect rainfall values.

Date Max Temp
(°C)
Min Temp
(°C)
Avg Temp
(°C)
Rain (mm) Avg RH (%)
Sun, Dec 10, 2017 -2.2 -4.5 -3.1 0.0 80.1
Sat, Dec 09, 2017 1.0 -4.6 -1.4 0.0 69.5
Fri, Dec 08, 2017 -1.0 -5.0 -2.6 0.0 67.0
Thu, Dec 07, 2017 0.2 -4.4 -1.8 0.0 69.0
Wed, Dec 06, 2017 2.7 -1.9 0.4 0.0 58.6
Tue, Dec 05, 2017 10.5 -0.2 6.6 8.2 76.3
Mon, Dec 04, 2017 10.2 -3.6 4.7 0.2 78.6
DateTime Avg Temp (°C) Rain (mm) RH (%)
Mon, Dec 11, 2017 02:00 -3.6 0.0 92.5
Mon, Dec 11, 2017 01:00 -2.9 0.0 83.0
Mon, Dec 11, 2017 00:00 -3.0 0.0 81.0
Sun, Dec 10, 2017 23:00 -3.4 0.0 82.0
Sun, Dec 10, 2017 22:00 -3.4 0.0 80.0
Sun, Dec 10, 2017 21:00 -3.2 0.0 78.3
Sun, Dec 10, 2017 20:00 -3.2 0.0 76.3
Sun, Dec 10, 2017 19:00 -3.2 0.0 75.3
Sun, Dec 10, 2017 18:00 -2.7 0.0 71.0
Sun, Dec 10, 2017 17:00 -2.3 0.0 68.0
Sun, Dec 10, 2017 16:00 -2.3 0.0 72.3
Sun, Dec 10, 2017 15:00 -2.2 0.0 74.5
Sun, Dec 10, 2017 14:00 -2.3 0.0 74.0
Sun, Dec 10, 2017 13:00 -2.4 0.0 76.3
Sun, Dec 10, 2017 12:00 -2.6 0.0 73.3
Sun, Dec 10, 2017 11:00 -2.8 0.0 70.0
Sun, Dec 10, 2017 10:00 -3.3 0.0 72.3
Sun, Dec 10, 2017 09:00 -3.6 0.0 74.8
Sun, Dec 10, 2017 08:00 -3.8 0.0 75.5
Sun, Dec 10, 2017 07:00 -3.6 0.0 84.3
Sun, Dec 10, 2017 06:00 -4.0 0.0 89.0
Sun, Dec 10, 2017 05:00 -3.5 0.0 92.3
Sun, Dec 10, 2017 04:00 -3.3 0.0 94.5
Sun, Dec 10, 2017 03:00 -3.3 0.0 94.8
Sun, Dec 10, 2017 02:00 -3.5 0.0 95.5
Sun, Dec 10, 2017 01:00 -3.5 0.0 97.0
Sun, Dec 10, 2017 00:00 -3.7 0.0 97.5
Sat, Dec 09, 2017 23:00 -4.4 0.0 97.3
Sat, Dec 09, 2017 22:00 -3.9 0.0 95.5
Sat, Dec 09, 2017 21:00 -2.9 0.0 92.8
Sat, Dec 09, 2017 20:00 -2.2 0.0 84.8
Sat, Dec 09, 2017 19:00 -1.1 0.0 67.3
Sat, Dec 09, 2017 18:00 -1.1 0.0 66.0
Sat, Dec 09, 2017 17:00 -0.7 0.0 62.5
Sat, Dec 09, 2017 16:00 -0.1 0.0 58.3
Sat, Dec 09, 2017 15:00 0.2 0.0 56.8
Sat, Dec 09, 2017 14:00 0.3 0.0 55.8
Sat, Dec 09, 2017 13:00 0.2 0.0 56.8
Sat, Dec 09, 2017 12:00 0.5 0.0 54.0
Sat, Dec 09, 2017 11:00 0.3 0.0 57.0
Sat, Dec 09, 2017 10:00 -0.2 0.0 64.8
Sat, Dec 09, 2017 09:00 -1.4 0.0 74.8
Sat, Dec 09, 2017 08:00 -1.2 0.0 76.3
Sat, Dec 09, 2017 07:00 -0.9 0.0 77.8
Sat, Dec 09, 2017 06:00 -1.5 0.0 68.5
Sat, Dec 09, 2017 05:00 -1.9 0.0 63.8
Sat, Dec 09, 2017 04:00 -2.0 0.0 62.0
Sat, Dec 09, 2017 03:00 -1.9 0.0 60.3


asterix Register now to access more data! asterix